Alert, Nunavut

7:52 PM ADT on May 22, 2015 (GMT -0300)
Alert | | Change Station
CLOSE
Current Station
Airport
Location: Alert Airport,
Elevation: 102 ft
Nearby Weather Stations

Elev 102 ft 82.52 °N, 62.28 °W | Updated 52 minutes ago

Overcast
Overcast
9 °F
Feels Like -6 °F
N
10
Wind Variable Wind from NW

Today
High -- | Low -- °F
--% Chance of Precip.
Yesterday
High -- | Low -- °F
Precip. -- in
8:00 PM 8:00 PM
Waxing Crescent, 24% visible
Pressure 29.65 in
Visibility 15.0 miles
Clouds Few 1500 ft
Scattered Clouds 12000 ft
Overcast 23000 ft
Windchill -6 °F
Dew Point 3 °F
Humidity 79%
Rainfall 0.00 in
Snow Depth Not available.
UV 0 out of 12
Pollen Not available.
Air Quality Not available.
Flu Activity Not available.
METAR CYLT 222200Z 32009KT 15SM VCSH FEW015 SCT120 OVC230 M13/M16 A2963 RMK ST1AC2CS2 HALO VIS LWR S QUAD SHSN SC TR N OBS SENT VIA CYCX SLP038

More Conditions Fewer Conditions

Pressure 29.65 in
Visibility 15.0 miles
Clouds Few 1500 ft
Scattered Clouds 12000 ft
Overcast 23000 ft
Windchill -6 °F
Dew Point 3 °F
Humidity 79%
Rainfall 0.00 in
Snow Depth Not available.
UV 0 out of 12
Pollen Not available.
Air Quality Not available.
Flu Activity Not available.
METAR CYLT 222200Z 32009KT 15SM VCSH FEW015 SCT120 OVC230 M13/M16 A2963 RMK ST1AC2CS2 HALO VIS LWR S QUAD SHSN SC TR N OBS SENT VIA CYCX SLP038

More Conditions Fewer Conditions

10-Day Weather Forecast

Almanac

Astronomy

May. 22, 2015 Rise Set
Actual Time
Civil Twilight
Nautical Twilight
Astronomical Twilight
Moon
Length of Visible Light
Length of Day
Tomorrow will be .
, % of the Moon is Illuminated

Today's Extremes

Country Highs Country Lows

Community

WunderPhotos

Upload Photos

1,823,323 photos uploaded!

WunderBlogs® & News

Nearby

Air Quality

  Air Quality AQ Index Pollutant
Not available.

Snow Depth

Station Depth Elevation

Earthquake Activity

City Distance Mag. Time & Date
Minimum magnitude displayed is 2.5.

Coastal Water Temperatures

Place Temperature

Stations

Nearby Weather Stations

Station Location Temp. Windchill Dew Point Humidity Wind Precip. Elev Updated Type